Time;durP1;ratioP1;P1;durP2;ratioP2;P2;SDS_P1;SDS_P2;PMS_P1;PMS_P2;Temp;Humidity;BMP_temperature;BMP_pressure;BME280_temperature;BME280_humidity;BME280_pressure;Samples;Min_cycle;Max_cycle;Signal;HPM_P1;HPM_P2
2022/12/05 00:01:35;;;;;;;3.08;2.75;;;11.00;94.90;;;;;;6214392;23;20000;-83
2022/12/05 00:04:04;;;;;;;3.25;2.28;;;11.00;95.20;;;;;;6214947;23;20007;-83
2022/12/05 00:06:32;;;;;;;3.47;2.33;;;11.00;94.80;;;;;;6214827;23;20427;-83
2022/12/05 00:08:58;;;;;;;4.00;2.80;;;11.00;94.90;;;;;;6214526;23;20297;-83
2022/12/05 00:11:27;;;;;;;3.60;2.65;;;11.10;94.90;;;;;;6214702;23;19997;-82
2022/12/05 00:13:54;;;;;;;3.03;2.45;;;11.10;94.90;;;;;;6213759;23;20003;-82
2022/12/05 00:16:21;;;;;;;4.10;2.50;;;11.10;94.90;;;;;;6214195;23;20126;-82
2022/12/05 00:18:48;;;;;;;4.65;2.25;;;11.10;94.70;;;;;;6214689;23;20602;-82
2022/12/05 00:21:19;;;;;;;8.45;2.75;;;11.10;94.70;;;;;;6214516;23;20008;-82
2022/12/05 00:23:45;;;;;;;2.90;2.60;;;11.10;94.80;;;;;;6213741;23;20024;-82
2022/12/05 00:26:12;;;;;;;4.20;2.78;;;11.10;94.80;;;;;;6213763;23;20624;-82
2022/12/05 00:28:37;;;;;;;3.58;2.75;;;11.10;94.80;;;;;;6214530;23;19997;-81
2022/12/05 00:31:09;;;;;;;3.10;2.80;;;11.10;94.70;;;;;;6214537;23;20004;-82
2022/12/05 00:33:34;;;;;;;4.28;3.13;;;11.10;94.80;;;;;;6213946;23;20000;-81
2022/12/05 00:36:15;;;;;;;5.22;2.83;;;11.10;94.80;;;;;;6213835;23;20054;-81
2022/12/05 00:38:41;;;;;;;3.50;2.65;;;11.10;94.80;;;;;;6187748;23;20347;-81
2022/12/05 00:41:13;;;;;;;3.28;2.53;;;11.10;94.70;;;;;;6214310;23;20028;-82
2022/12/05 00:43:39;;;;;;;3.28;2.30;;;11.10;94.60;;;;;;6214259;23;20477;-82
2022/12/05 00:46:08;;;;;;;4.38;3.10;;;11.10;94.70;;;;;;6214240;23;20012;-82
2022/12/05 00:48:34;;;;;;;4.10;2.90;;;11.00;94.60;;;;;;6214514;23;19996;-83
2022/12/05 00:51:01;;;;;;;6.15;3.47;;;10.80;94.60;;;;;;6213632;23;20004;-82
2022/12/05 00:53:27;;;;;;;3.75;2.53;;;11.50;94.90;;;;;;6213561;23;20001;-82
2022/12/05 00:55:53;;;;;;;3.63;3.13;;;10.80;94.90;;;;;;6214503;23;20079;-82
2022/12/05 00:58:18;;;;;;;4.95;3.00;;;10.80;94.90;;;;;;6213715;23;20103;-83
2022/12/05 01:00:47;;;;;;;4.38;3.10;;;10.80;94.90;;;;;;6213464;23;20004;-83
2022/12/05 01:03:13;;;;;;;4.50;3.38;;;10.80;95.00;;;;;;6213489;23;20050;-82
2022/12/05 01:05:38;;;;;;;5.22;3.45;;;10.90;95.00;;;;;;6214544;23;20419;-86
2022/12/05 01:08:04;;;;;;;4.63;3.70;;;10.90;95.00;;;;;;6214748;23;20001;-85
2022/12/05 01:10:30;;;;;;;3.88;3.13;;;9.60;94.50;;;;;;6186909;23;20059;-85
2022/12/05 01:12:55;;;;;;;3.13;2.65;;;10.80;94.90;;;;;;6214089;23;20004;-85
2022/12/05 01:15:21;;;;;;;3.95;3.05;;;10.80;94.90;;;;;;6213881;23;20014;-83
2022/12/05 01:17:47;;;;;;;3.13;2.58;;;10.90;95.00;;;;;;6215055;23;20004;-83
2022/12/05 01:20:12;;;;;;;3.05;2.58;;;10.90;94.90;;;;;;6212325;23;20064;-84
2022/12/05 01:22:38;;;;;;;3.30;2.60;;;10.90;94.90;;;;;;6213683;23;20014;-84
2022/12/05 01:25:04;;;;;;;3.92;2.75;;;11.00;94.90;;;;;;6213621;23;20039;-84
2022/12/05 01:27:30;;;;;;;5.57;2.97;;;11.00;94.90;;;;;;6214361;23;19996;-85
2022/12/05 01:29:57;;;;;;;3.08;2.70;;;11.00;94.90;;;;;;6213365;23;20074;-83
2022/12/05 01:32:22;;;;;;;4.85;3.17;;;11.00;94.90;;;;;;6213198;23;20100;-84
2022/12/05 01:34:48;;;;;;;3.88;2.95;;;;;;;;;;6214114;23;20035;-87
2022/12/05 01:37:14;;;;;;;4.13;2.92;;;11.10;94.80;;;;;;6213448;23;20469;-85
2022/12/05 01:39:40;;;;;;;2.78;2.55;;;11.10;95.00;;;;;;6187101;23;20001;-86
2022/12/05 01:42:06;;;;;;;4.00;3.08;;;11.10;95.00;;;;;;6213715;23;20004;-85
2022/12/05 01:44:31;;;;;;;6.18;3.50;;;11.10;95.10;;;;;;6214331;23;19997;-86
2022/12/05 01:46:57;;;;;;;3.22;2.90;;;11.10;95.10;;;;;;6213939;23;20024;-86
2022/12/05 01:49:25;;;;;;;4.03;2.50;;;11.00;95.50;;;;;;6215693;23;20004;-84
2022/12/05 01:51:55;;;;;;;4.82;3.22;;;11.00;95.30;;;;;;6215277;23;20327;-84
2022/12/05 01:54:22;;;;;;;4.57;2.80;;;10.90;95.40;;;;;;6215697;23;20072;-83
2022/12/05 01:56:52;;;;;;;5.10;3.10;;;10.90;95.50;;;;;;6216355;23;20012;-84
2022/12/05 01:59:21;;;;;;;6.53;2.85;;;10.80;95.60;;;;;;6216115;23;20015;-84
2022/12/05 02:01:47;;;;;;;4.50;2.70;;;10.80;95.60;;;;;;6215400;23;20005;-85
2022/12/05 02:04:12;;;;;;;3.30;2.72;;;10.80;95.60;;;;;;6216324;23;20005;-85
2022/12/05 02:06:38;;;;;;;3.08;2.38;;;10.90;95.70;;;;;;6216630;23;20005;-86
2022/12/05 02:09:05;;;;;;;4.40;2.67;;;10.90;95.70;;;;;;6189409;23;20004;-85
2022/12/05 02:11:32;;;;;;;3.28;2.85;;;10.90;95.70;;;;;;6214981;23;19996;-87
2022/12/05 02:14:07;;;;;;;4.93;3.35;;;10.90;95.90;;;;;;6215460;23;20068;-86
2022/12/05 02:16:41;;;;;;;4.25;3.00;;;10.90;95.70;;;;;;6215997;23;20019;-87
2022/12/05 02:19:35;;;;;;;4.45;3.03;;;10.90;95.80;;;;;;6215154;23;20047;-85
2022/12/05 02:22:36;;;;;;;5.32;2.60;;;10.90;95.80;;;;;;6188024;23;20367;-86
2022/12/05 02:25:13;;;;;;;4.45;2.40;;;10.90;95.80;;;;;;6215967;23;20008;-86
2022/12/05 02:28:07;;;;;;;3.20;2.60;;;10.90;96.00;;;;;;6214634;23;20080;-85
2022/12/05 02:30:39;;;;;;;4.57;2.90;;;10.80;96.00;;;;;;6215592;23;20023;-85
2022/12/05 02:33:09;;;;;;;4.07;2.78;;;10.80;96.10;;;;;;6215434;23;20001;-86
2022/12/05 02:35:38;;;;;;;3.78;2.72;;;10.90;96.20;;;;;;6216209;23;20323;-86
2022/12/05 02:38:22;;;;;;;4.28;2.80;;;10.90;96.10;;;;;;6215625;23;20001;-87
2022/12/05 02:41:05;;;;;;;3.53;2.60;;;10.90;96.10;;;;;;6215221;23;20027;-87
2022/12/05 02:43:45;;;;;;;4.50;2.35;;;10.90;96.10;;;;;;6214899;23;20009;-86
2022/12/05 02:46:17;;;;;;;3.95;2.38;;;11.00;96.20;;;;;;6215056;23;20007;-86
2022/12/05 02:48:46;;;;;;;3.50;2.25;;;11.00;96.10;;;;;;6215265;23;20315;-85
2022/12/05 02:51:16;;;;;;;3.13;2.47;;;11.00;96.00;;;;;;6215188;23;20031;-86
2022/12/05 02:53:44;;;;;;;3.95;2.30;;;11.00;96.10;;;;;;6215525;23;20004;-85
2022/12/05 02:56:10;;;;;;;2.38;2.13;;;11.00;96.20;;;;;;6215719;23;20025;-84
2022/12/05 02:58:46;;;;;;;3.38;2.42;;;11.00;96.20;;;;;;6215527;23;20055;-84
2022/12/05 03:01:12;;;;;;;4.05;2.83;;;10.90;96.20;;;;;;6214635;23;20008;-84
2022/12/05 03:03:38;;;;;;;3.60;2.75;;;10.90;96.20;;;;;;6214719;23;20004;-85
2022/12/05 03:06:16;;;;;;;3.17;2.80;;;10.90;96.30;;;;;;6214059;23;20011;-84
2022/12/05 03:09:04;;;;;;;4.07;2.50;;;10.90;96.30;;;;;;6215157;23;20087;-84
2022/12/05 03:11:37;;;;;;;4.10;2.80;;;10.90;96.20;;;;;;6214979;23;20004;-85
2022/12/05 03:14:05;;;;;;;2.80;2.50;;;10.90;96.30;;;;;;6215041;23;19997;-85
2022/12/05 03:16:40;;;;;;;6.22;3.55;;;10.90;96.30;;;;;;6214957;23;20020;-85
2022/12/05 03:19:13;;;;;;;3.42;2.25;;;10.90;96.00;;;;;;6214571;23;20076;-86
2022/12/05 03:21:48;;;;;;;4.35;2.72;;;10.80;96.20;;;;;;6214278;23;20027;-84
2022/12/05 03:24:15;;;;;;;2.72;2.40;;;10.80;96.30;;;;;;6214787;23;20175;-85
2022/12/05 03:26:58;;;;;;;3.38;2.40;;;10.80;96.30;;;;;;6214649;23;20005;-84
2022/12/05 03:29:27;;;;;;;2.95;1.92;;;10.80;96.30;;;;;;6215658;23;20022;-87
2022/12/05 03:32:34;;;;;;;3.45;2.50;;;10.80;96.30;;;;;;6214949;23;20000;-87
2022/12/05 03:35:19;;;;;;;3.28;2.80;;;10.90;96.30;;;;;;6166914;23;20016;-86
2022/12/05 03:38:00;;;;;;;3.38;2.83;;;10.90;96.20;;;;;;6214588;23;20008;-86
2022/12/05 03:40:35;;;;;;;4.95;3.25;;;10.90;96.20;;;;;;6214801;23;20435;-84
2022/12/05 03:43:18;;;;;;;4.57;3.13;;;10.80;96.30;;;;;;6214456;23;20056;-85
2022/12/05 03:45:55;;;;;;;4.22;3.17;;;10.80;96.30;;;;;;6214751;23;20004;-84
2022/12/05 03:48:37;;;;;;;2.97;2.50;;;10.90;96.40;;;;;;6214818;23;20001;-84
2022/12/05 03:51:07;;;;;;;4.05;2.47;;;10.80;96.40;;;;;;6214588;23;20433;-86
2022/12/05 03:53:56;;;;;;;3.78;2.35;;;10.90;96.40;;;;;;6215126;23;20000;-85
2022/12/05 03:56:32;;;;;;;3.67;2.90;;;10.90;96.50;;;;;;6214081;23;20009;-85
2022/12/05 03:59:06;;;;;;;4.07;2.75;;;10.90;96.50;;;;;;6215042;23;20425;-86
2022/12/05 04:01:33;;;;;;;3.90;2.90;;;11.00;96.40;;;;;;6214604;23;20066;-85
2022/12/05 04:04:07;;;;;;;2.85;2.33;;;10.90;96.50;;;;;;6214817;23;20004;-84
2022/12/05 04:06:36;;;;;;;3.17;2.03;;;10.90;96.60;;;;;;6215249;23;20004;-86
2022/12/05 04:09:08;;;;;;;2.40;1.95;;;10.90;96.60;;;;;;6215553;23;20003;-85
2022/12/05 04:11:39;;;;;;;2.85;2.03;;;10.90;96.60;;;;;;6213909;23;20001;-85
2022/12/05 04:14:10;;;;;;;3.47;2.03;;;10.90;96.60;;;;;;6214431;23;19997;-85
2022/12/05 04:17:02;;;;;;;3.30;2.17;;;10.90;96.60;;;;;;6214581;23;20039;-84
2022/12/05 04:22:25;;;;;;;3.35;2.25;;;11.00;96.60;;;;;;6213934;23;20070;-84
2022/12/05 04:27:53;;;;;;;3.15;2.38;;;11.00;96.60;;;;;;6214040;23;20015;-84
2022/12/05 04:30:22;;;;;;;2.88;2.30;;;11.00;96.70;;;;;;6214109;23;20001;-85
2022/12/05 04:33:10;;;;;;;3.42;2.05;;;11.00;96.70;;;;;;6213899;23;20071;-85
2022/12/05 04:36:06;;;;;;;3.25;2.47;;;11.00;96.70;;;;;;6213894;23;20064;-84
2022/12/05 04:38:38;;;;;;;4.22;2.25;;;11.10;96.70;;;;;;6201743;23;20004;-84
2022/12/05 04:41:09;;;;;;;3.05;2.15;;;11.00;96.80;;;;;;6214143;23;20011;-83
2022/12/05 04:43:39;;;;;;;2.30;2.00;;;11.00;96.80;;;;;;6214049;23;20071;-85
2022/12/05 04:46:07;;;;;;;;;;;11.00;96.80;;;;;;6215165;23;20054;-86
2022/12/05 04:48:37;;;;;;;2.10;1.30;;;11.10;96.90;;;;;;6188106;23;19900;-87
2022/12/05 04:51:06;;;;;;;4.05;2.33;;;11.10;96.80;;;;;;6214493;23;20075;-85
2022/12/05 04:53:32;;;;;;;2.40;1.40;;;11.10;96.90;;;;;;6213671;23;20009;-85
2022/12/05 04:56:00;;;;;;;2.63;1.40;;;11.10;96.80;;;;;;6213905;23;20067;-84
2022/12/05 04:58:28;;;;;;;6.20;2.13;;;11.10;96.80;;;;;;6214481;23;20403;-86
2022/12/05 05:01:21;;;;;;;1.73;1.40;;;11.20;96.80;;;;;;6214668;23;20009;-85
2022/12/05 05:03:54;;;;;;;2.08;1.60;;;11.20;96.80;;;;;;6213670;23;20004;-86
2022/12/05 05:06:20;;;;;;;2.53;2.00;;;11.10;96.90;;;;;;6213646;23;20005;-86
2022/12/05 05:08:54;;;;;;;3.58;1.55;;;11.10;96.90;;;;;;6214269;23;20050;-84
2022/12/05 05:11:29;;;;;;;2.58;1.58;;;11.10;96.90;;;;;;6214540;23;19997;-86
2022/12/05 05:13:54;;;;;;;2.63;2.15;;;11.10;97.00;;;;;;6214088;23;20475;-85
2022/12/05 05:16:24;;;;;;;2.15;1.75;;;11.10;97.00;;;;;;6214670;23;20044;-89
2022/12/05 05:18:50;;;;;;;2.10;1.70;;;11.10;97.00;;;;;;6215060;23;20027;-87
2022/12/05 05:21:21;;;;;;;2.25;1.80;;;11.10;97.10;;;;;;6214794;23;20000;-88
2022/12/05 05:23:46;;;;;;;2.72;1.80;;;11.10;97.10;;;;;;6216169;23;20012;-88
2022/12/05 05:26:12;;;;;;;1.52;1.40;;;11.10;97.20;;;;;;6216761;23;20005;-88
2022/12/05 05:28:38;;;;;;;2.20;1.80;;;11.20;97.20;;;;;;6216534;23;19997;-89
2022/12/05 05:31:05;;;;;;;4.10;2.60;;;11.20;97.10;;;;;;6216375;23;20024;-86
2022/12/05 05:33:31;;;;;;;3.53;1.88;;;11.20;97.10;;;;;;6216115;23;19997;-86
2022/12/05 05:36:00;;;;;;;3.33;1.60;;;11.20;97.10;;;;;;6188703;23;20005;-84
2022/12/05 05:38:25;;;;;;;2.65;2.20;;;11.20;97.30;;;;;;6216142;23;20004;-85
2022/12/05 05:40:51;;;;;;;4.93;3.88;;;11.20;97.20;;;;;;6215898;23;20026;-84
2022/12/05 05:43:17;;;;;;;4.40;3.47;;;11.10;97.30;;;;;;6216246;23;20047;-85
2022/12/05 05:45:42;;;;;;;3.17;2.67;;;11.00;97.60;;;;;;6216215;23;20031;-84
2022/12/05 05:48:08;;;;;;;5.15;4.07;;;;;;;;;;6216306;23;20054;-85
2022/12/05 05:50:34;;;;;;;5.88;4.15;;;11.00;97.40;;;;;;6215831;23;20399;-85
2022/12/05 05:53:00;;;;;;;2.90;2.55;;;10.80;98.10;;;;;;6215313;23;20059;-84
2022/12/05 05:55:25;;;;;;;6.03;4.07;;;10.80;98.30;;;;;;6216213;23;20076;-87
2022/12/05 05:57:51;;;;;;;4.25;3.65;;;10.90;98.20;;;;;;6216737;23;20008;-87
2022/12/05 06:00:17;;;;;;;3.83;3.42;;;10.70;98.50;;;;;;6216424;23;20004;-88
2022/12/05 06:02:43;;;;;;;3.35;2.95;;;10.80;98.70;;;;;;6215403;23;20000;-82
2022/12/05 06:05:09;;;;;;;5.32;3.50;;;10.80;98.40;;;;;;6216260;23;20063;-83
2022/12/05 06:07:36;;;;;;;4.50;3.00;;;10.90;98.50;;;;;;6215625;23;20011;-81
2022/12/05 06:10:02;;;;;;;3.25;2.70;;;10.90;98.40;;;;;;6214152;23;20304;-74
2022/12/05 06:12:28;;;;;;;4.13;3.00;;;11.00;98.30;;;;;;6214586;23;20007;-74
2022/12/05 06:14:54;;;;;;;3.30;2.85;;;11.00;98.20;;;;;;6214188;23;20383;-74
2022/12/05 06:17:19;;;;;;;3.20;2.88;;;11.10;98.10;;;;;;6213136;23;20327;-74
2022/12/05 06:19:45;;;;;;;4.05;2.83;;;11.10;98.00;;;;;;6213879;23;20016;-74
2022/12/05 06:22:10;;;;;;;3.33;2.58;;;11.20;98.00;;;;;;6214096;23;20076;-74
2022/12/05 06:24:37;;;;;;;3.10;2.20;;;11.20;98.00;;;;;;6213758;23;20000;-74
2022/12/05 06:27:03;;;;;;;4.97;3.05;;;11.20;97.90;;;;;;6214923;23;20005;-74
2022/12/05 06:29:28;;;;;;;2.80;2.50;;;11.30;97.90;;;;;;6215764;23;20000;-73
2022/12/05 06:31:55;;;;;;;3.30;2.80;;;11.30;97.80;;;;;;6214688;23;20032;-73
2022/12/05 06:34:21;;;;;;;3.08;2.70;;;11.30;97.80;;;;;;6215193;23;20005;-73
2022/12/05 06:36:47;;;;;;;4.35;2.70;;;11.40;97.80;;;;;;6215277;23;20072;-82
2022/12/05 06:39:12;;;;;;;3.65;2.55;;;11.40;97.80;;;;;;6215345;23;20000;-82
2022/12/05 06:41:38;;;;;;;3.70;3.03;;;11.40;97.70;;;;;;6213864;23;20011;-84
2022/12/05 06:44:04;;;;;;;4.20;3.28;;;11.50;97.70;;;;;;6213577;23;20327;-84
2022/12/05 06:46:30;;;;;;;3.55;2.88;;;11.40;97.60;;;;;;6213399;23;20000;-84
2022/12/05 06:48:57;;;;;;;3.28;1.98;;;11.40;97.70;;;;;;6214098;23;20004;-83
2022/12/05 06:51:23;;;;;;;4.68;2.30;;;11.40;97.70;;;;;;6188044;23;20027;-82
2022/12/05 06:53:49;;;;;;;2.80;2.33;;;11.40;97.70;;;;;;6215279;23;20064;-83
2022/12/05 06:56:18;;;;;;;3.53;2.47;;;11.40;97.80;;;;;;6215063;23;20056;-82
2022/12/05 06:58:46;;;;;;;3.10;2.13;;;11.40;97.70;;;;;;6215299;23;20000;-83
2022/12/05 07:04:05;;;;;;;2.30;2.10;;;11.50;97.80;;;;;;6215074;23;20339;-81
2022/12/05 07:06:32;;;;;;;2.95;2.30;;;11.50;97.80;;;;;;6215070;23;20055;-83
2022/12/05 07:08:58;;;;;;;2.80;2.30;;;11.50;97.80;;;;;;6214605;23;20005;-83
2022/12/05 07:11:24;;;;;;;2.97;2.20;;;11.40;98.00;;;;;;6214690;23;20008;-82
2022/12/05 07:13:50;;;;;;;2.72;2.30;;;11.40;98.20;;;;;;6214704;23;19996;-83
2022/12/05 07:16:15;;;;;;;2.30;1.80;;;11.40;98.10;;;;;;6214226;23;20115;-83
2022/12/05 07:18:41;;;;;;;1.77;1.63;;;11.40;98.30;;;;;;6215319;23;20004;-84
2022/12/05 07:21:10;;;;;;;2.10;1.85;;;11.50;98.00;;;;;;6189706;23;20320;-86
2022/12/05 07:23:36;;;;;;;2.60;2.15;;;11.50;97.90;;;;;;6217364;23;20008;-85
2022/12/05 07:26:06;;;;;;;2.00;1.80;;;11.60;97.90;;;;;;6215210;23;20398;-82
2022/12/05 07:28:32;;;;;;;;;;;11.60;97.90;;;;;;6190171;23;20566;-79
2022/12/05 07:31:08;;;;;;;5.10;2.30;;;11.60;97.80;;;;;;6215091;23;19931;-82
2022/12/05 07:33:34;;;;;;;3.65;2.60;;;11.60;97.80;;;;;;6213827;23;19996;-82
2022/12/05 07:36:02;;;;;;;2.60;2.17;;;11.60;97.70;;;;;;6216113;23;20414;-85
2022/12/05 07:38:30;;;;;;;2.20;2.00;;;11.70;97.80;;;;;;6216461;23;20016;-84
2022/12/05 07:40:55;;;;;;;2.15;1.95;;;11.80;97.70;;;;;;6189961;23;20012;-84
2022/12/05 07:43:21;;;;;;;2.80;1.98;;;11.80;97.70;;;;;;6216595;23;20005;-84
2022/12/05 07:45:47;;;;;;;3.83;2.33;;;11.80;97.70;;;;;;6188458;23;20350;-85
2022/12/05 07:48:13;;;;;;;3.28;2.78;;;11.80;97.70;;;;;;6216336;23;20071;-86
2022/12/05 07:50:39;;;;;;;2.13;1.92;;;11.80;97.70;;;;;;6215442;23;20370;-86
2022/12/05 07:53:04;;;;;;;2.88;2.10;;;11.90;97.70;;;;;;6214995;23;20056;-86
2022/12/05 07:55:30;;;;;;;2.83;2.08;;;11.80;97.60;;;;;;6189892;23;20004;-85
2022/12/05 07:57:59;;;;;;;3.08;1.98;;;11.90;97.60;;;;;;6217832;23;20032;-83
2022/12/05 08:00:24;;;;;;;2.35;2.00;;;11.90;97.60;;;;;;6216214;23;20000;-83
2022/12/05 08:02:50;;;;;;;3.00;2.42;;;11.90;97.60;;;;;;6217004;23;20028;-86
2022/12/05 08:05:16;;;;;;;2.50;2.17;;;11.90;97.60;;;;;;6216659;23;20423;-85
2022/12/05 08:07:41;;;;;;;2.15;1.95;;;11.90;97.60;;;;;;6216640;23;19996;-85
2022/12/05 08:10:08;;;;;;;2.08;1.75;;;12.00;97.60;;;;;;6218888;23;20004;-87
2022/12/05 08:12:34;;;;;;;3.30;2.38;;;12.00;97.60;;;;;;6216420;23;19997;-85
2022/12/05 08:14:59;;;;;;;2.60;2.08;;;12.00;97.60;;;;;;6190465;23;20007;-88
2022/12/05 08:17:28;;;;;;;1.88;1.70;;;12.00;97.60;;;;;;6218368;23;20008;-88
2022/12/05 08:19:53;;;;;;;2.33;1.80;;;12.00;97.60;;;;;;6219361;23;20019;-83
2022/12/05 08:22:19;;;;;;;2.53;1.70;;;12.00;97.60;;;;;;6217306;23;20001;-85
2022/12/05 08:24:45;;;;;;;2.72;1.60;;;12.10;97.60;;;;;;6216730;23;20071;-85
2022/12/05 08:27:10;;;;;;;2.60;1.48;;;12.10;97.60;;;;;;6217730;23;20004;-86
2022/12/05 08:29:36;;;;;;;2.53;1.90;;;12.10;97.50;;;;;;6216770;23;20023;-83
2022/12/05 08:32:02;;;;;;;3.60;1.92;;;12.10;97.50;;;;;;6216046;23;19997;-85
2022/12/05 08:34:28;;;;;;;2.80;1.80;;;11.90;97.70;;;;;;6215981;23;20030;-84
2022/12/05 08:36:54;;;;;;;3.30;1.92;;;11.90;97.70;;;;;;6216266;23;20024;-84
2022/12/05 08:39:20;;;;;;;2.50;2.15;;;11.90;97.70;;;;;;6215607;23;20009;-84
2022/12/05 08:41:47;;;;;;;4.05;1.95;;;11.90;97.80;;;;;;6189674;23;20435;-84
2022/12/05 08:44:15;;;;;;;2.88;2.13;;;12.00;97.80;;;;;;6216437;23;20000;-86
2022/12/05 08:46:42;;;;;;;3.40;2.38;;;12.00;97.80;;;;;;6216747;23;20031;-85
2022/12/05 08:49:10;;;;;;;2.83;2.35;;;12.00;97.80;;;;;;6217280;23;20001;-88
2022/12/05 08:51:35;;;;;;;2.90;2.10;;;12.10;97.80;;;;;;6218296;23;20004;-88
2022/12/05 08:54:03;;;;;;;2.97;2.67;;;12.10;97.80;;;;;;6220295;23;20325;-88
2022/12/05 08:56:29;;;;;;;3.65;2.38;;;12.10;97.90;;;;;;6218418;23;20050;-87
2022/12/05 08:58:55;;;;;;;2.28;1.90;;;12.10;98.00;;;;;;6218538;23;20032;-87
2022/12/05 09:01:21;;;;;;;3.60;2.42;;;12.20;98.10;;;;;;6216494;23;19996;-84
2022/12/05 09:03:47;;;;;;;4.50;2.88;;;12.30;98.00;;;;;;6216429;23;20335;-88
2022/12/05 09:06:14;;;;;;;6.53;3.03;;;12.40;98.00;;;;;;6216702;23;20431;-81
2022/12/05 09:08:42;;;;;;;3.33;2.75;;;12.50;98.10;;;;;;6214289;23;20007;-87
2022/12/05 09:11:16;;;;;;;2.40;1.95;;;12.60;97.70;;;;;;6216650;23;20007;-89
2022/12/05 09:13:42;;;;;;;2.55;2.03;;;12.60;97.90;;;;;;6189843;23;20083;-88
2022/12/05 09:16:13;;;;;;;3.70;3.05;;;12.60;97.90;;;;;;6218215;23;20024;-87
2022/12/05 09:18:40;;;;;;;3.00;2.50;;;12.70;97.70;;;;;;6217835;23;20070;-86
2022/12/05 09:21:18;;;;;;;3.60;2.30;;;12.70;97.80;;;;;;6216559;23;20358;-84
2022/12/05 09:23:44;;;;;;;2.78;2.30;;;12.80;97.70;;;;;;6189848;23;20431;-93
2022/12/05 09:26:13;;;;;;;2.75;2.00;;;12.90;97.40;;;;;;6192447;23;20009;-93
2022/12/05 09:28:39;;;;;;;2.97;1.98;;;12.90;97.40;;;;;;6217586;23;20005;-93
2022/12/05 09:31:08;;;;;;;3.92;2.15;;;12.90;97.50;;;;;;6219050;23;19997;-91
2022/12/05 09:33:36;;;;;;;2.40;1.88;;;13.00;97.30;;;;;;6219036;23;20035;-93
2022/12/05 09:36:12;;;;;;;3.72;2.17;;;13.10;97.30;;;;;;6221957;23;20007;-92
2022/12/05 09:38:38;;;;;;;3.15;2.28;;;13.20;97.10;;;;;;6220658;23;20008;-92
2022/12/05 09:41:12;;;;;;;4.15;2.05;;;13.20;97.00;;;;;;6219787;23;20446;-92
2022/12/05 09:43:47;;;;;;;2.45;1.85;;;13.30;96.90;;;;;;6217449;23;20004;-86
2022/12/05 09:46:25;;;;;;;3.80;2.13;;;13.30;96.80;;;;;;6217146;23;20001;-93
2022/12/05 09:48:51;;;;;;;2.60;2.00;;;13.30;96.70;;;;;;6220003;23;20083;-91
2022/12/05 09:51:17;;;;;;;4.90;1.88;;;13.40;97.10;;;;;;6219390;23;20051;-91
2022/12/05 09:53:44;;;;;;;3.65;1.98;;;13.50;97.20;;;;;;6218192;23;20005;-91
2022/12/05 09:56:15;;;;;;;3.50;2.17;;;13.50;96.70;;;;;;6216592;23;20001;-90
2022/12/05 09:58:52;;;;;;;5.30;1.77;;;13.60;96.60;;;;;;6217622;23;20415;-91
2022/12/05 10:01:42;;;;;;;3.28;1.67;;;13.60;96.60;;;;;;6190797;23;20009;-91
2022/12/05 10:04:37;;;;;;;4.75;1.90;;;13.70;96.50;;;;;;6217629;23;20008;-88
2022/12/05 10:07:14;;;;;;;5.78;2.22;;;13.80;96.70;;;;;;6218237;23;20027;-89
2022/12/05 10:10:11;;;;;;;3.67;2.30;;;13.90;96.30;;;;;;6221185;23;20019;-87
2022/12/05 10:12:51;;;;;;;3.78;2.40;;;13.90;96.10;;;;;;6216886;23;20059;-88
2022/12/05 10:15:22;;;;;;;2.97;2.03;;;13.90;96.00;;;;;;6219635;23;20012;-89
2022/12/05 10:17:56;;;;;;;4.90;2.40;;;13.90;96.00;;;;;;6223188;23;20034;-89
2022/12/05 10:20:29;;;;;;;2.30;1.80;;;13.90;95.80;;;;;;6223138;23;20059;-91
2022/12/05 10:23:02;;;;;;;4.38;2.47;;;13.90;95.90;;;;;;6222786;23;20011;-90
2022/12/05 10:25:31;;;;;;;2.50;1.90;;;13.90;95.80;;;;;;6220559;23;20036;-90
2022/12/05 10:28:01;;;;;;;4.30;2.85;;;14.00;95.90;;;;;;6219986;23;19997;-86
2022/12/05 10:30:30;;;;;;;3.20;2.10;;;14.10;95.90;;;;;;6219064;23;20001;-91
2022/12/05 10:32:58;;;;;;;5.55;2.42;;;14.20;95.80;;;;;;6218348;23;20004;-91
2022/12/05 10:35:35;;;;;;;4.18;2.17;;;14.20;95.70;;;;;;6219277;23;20008;-92
2022/12/05 10:38:32;;;;;;;3.22;1.90;;;14.30;95.50;;;;;;6218766;23;20059;-91
2022/12/05 10:41:00;;;;;;;4.00;2.20;;;14.30;95.50;;;;;;6215222;23;20005;-90
2022/12/05 10:43:28;;;;;;;3.42;2.28;;;14.40;95.50;;;;;;6222496;23;20015;-91
2022/12/05 10:45:54;;;;;;;2.70;2.10;;;14.40;95.40;;;;;;6220439;23;20004;-91
2022/12/05 10:48:21;;;;;;;2.78;1.85;;;14.40;95.30;;;;;;6220152;23;20052;-91
2022/12/05 10:50:49;;;;;;;3.08;1.70;;;14.40;95.10;;;;;;6222100;23;20490;-91
2022/12/05 10:53:20;;;;;;;2.33;1.88;;;14.30;94.90;;;;;;6221205;23;20004;-89
2022/12/05 10:55:47;;;;;;;2.08;1.88;;;14.30;94.90;;;;;;6218802;23;20007;-88
2022/12/05 10:58:23;;;;;;;3.08;1.92;;;14.30;95.00;;;;;;6193493;23;20005;-88
2022/12/05 11:01:06;;;;;;;3.45;2.42;;;14.30;95.00;;;;;;6192041;23;20009;-88
2022/12/05 11:03:35;;;;;;;2.67;2.03;;;14.40;95.00;;;;;;6219061;23;20012;-89
2022/12/05 11:06:42;;;;;;;2.78;2.17;;;14.40;95.00;;;;;;6218273;23;20001;-89
2022/12/05 11:09:18;;;;;;;3.38;2.30;;;14.50;95.10;;;;;;6096711;23;20010;-89
2022/12/05 11:12:01;;;;;;;2.85;1.70;;;14.80;95.30;;;;;;6072207;23;20410;-89
2022/12/05 11:14:32;;;;;;;2.72;2.03;;;14.80;94.70;;;;;;6176337;23;20001;-89
2022/12/05 11:17:00;;;;;;;2.25;1.70;;;14.80;94.60;;;;;;6217537;23;20021;-89
2022/12/05 11:19:34;;;;;;;1.90;1.45;;;14.90;94.70;;;;;;6217433;23;20000;-89
2022/12/05 11:22:00;;;;;;;4.22;2.10;;;14.90;94.60;;;;;;6217624;23;20000;-87
2022/12/05 11:24:26;;;;;;;2.90;2.50;;;15.10;94.70;;;;;;6216626;23;20304;-89
2022/12/05 11:26:52;;;;;;;2.63;2.10;;;15.40;94.80;;;;;;6215803;23;20064;-89
2022/12/05 11:29:35;;;;;;;2.65;1.83;;;15.60;94.50;;;;;;6190130;23;20023;-89
2022/12/05 11:32:04;;;;;;;2.10;1.90;;;15.90;94.20;;;;;;6218558;23;20366;-90
2022/12/05 11:34:46;;;;;;;3.25;1.90;;;16.00;93.70;;;;;;6220324;23;20001;-89
2022/12/05 11:37:18;;;;;;;1.80;1.38;;;16.30;93.40;;;;;;6218822;23;20001;-89
2022/12/05 11:39:43;;;;;;;1.90;1.70;;;16.40;92.90;;;;;;6217816;23;20075;-89
2022/12/05 11:42:27;;;;;;;3.03;1.83;;;16.50;92.60;;;;;;6220177;23;20008;-89
2022/12/05 11:45:23;;;;;;;3.35;1.70;;;16.50;92.30;;;;;;6218014;23;20001;-90
2022/12/05 11:48:05;;;;;;;2.95;1.85;;;16.50;91.70;;;;;;6193865;23;20395;-90
2022/12/05 11:51:08;;;;;;;2.28;1.60;;;16.50;91.70;;;;;;6217145;23;20004;-86
2022/12/05 11:53:49;;;;;;;2.78;1.63;;;16.20;92.00;;;;;;6216039;23;20011;-86
2022/12/05 11:56:27;;;;;;;2.78;2.22;;;16.20;92.20;;;;;;6216397;23;20008;-87
2022/12/05 11:59:02;;;;;;;2.00;1.52;;;16.10;92.00;;;;;;6216271;23;20004;-87
2022/12/05 12:01:58;;;;;;;3.88;1.90;;;16.00;92.10;;;;;;6181183;23;20154;-86
2022/12/05 12:04:45;;;;;;;1.67;1.58;;;15.90;92.20;;;;;;6212154;23;20004;-87
2022/12/05 12:07:24;;;;;;;2.05;1.85;;;15.70;92.40;;;;;;6215599;23;20050;-88
2022/12/05 12:10:05;;;;;;;2.30;1.40;;;16.30;92.90;;;;;;6216063;23;20024;-87
2022/12/05 12:12:50;;;;;;;3.08;2.15;;;17.20;92.00;;;;;;6214919;23;20327;-88
2022/12/05 12:15:28;;;;;;;5.30;2.30;;;18.20;91.00;;;;;;6216274;23;20080;-88
2022/12/05 12:18:22;;;;;;;2.90;2.00;;;18.70;86.90;;;;;;6217780;23;20005;-88
2022/12/05 12:21:24;;;;;;;4.97;2.10;;;19.10;87.60;;;;;;6216034;23;20366;-87
2022/12/05 12:24:02;;;;;;;2.67;1.92;;;19.80;86.10;;;;;;6216409;23;19997;-88
2022/12/05 12:26:51;;;;;;;2.22;1.70;;;20.50;82.10;;;;;;6219516;23;20557;-89
2022/12/05 12:29:46;;;;;;;2.17;1.80;;;21.10;81.90;;;;;;6217614;23;20003;-89
2022/12/05 12:32:30;;;;;;;3.38;2.30;;;21.60;78.60;;;;;;6174534;23;20001;-87
2022/12/05 12:35:16;;;;;;;2.85;1.95;;;21.80;79.20;;;;;;6222667;23;20320;-88
2022/12/05 12:37:42;;;;;;;2.13;1.83;;;21.70;77.90;;;;;;6218078;23;20076;-89
2022/12/05 12:40:33;;;;;;;2.80;2.00;;;21.30;78.30;;;;;;6218772;23;19999;-89
2022/12/05 12:43:12;;;;;;;2.00;1.60;;;21.20;78.90;;;;;;6218945;23;20414;-88
2022/12/05 12:46:07;;;;;;;1.98;1.77;;;21.50;77.80;;;;;;6217592;23;20489;-88
2022/12/05 12:48:42;;;;;;;6.00;1.92;;;21.50;78.10;;;;;;6216681;23;20001;-87
2022/12/05 12:51:11;;;;;;;21.98;3.13;;;21.20;77.10;;;;;;6219556;23;20008;-89
2022/12/05 12:53:44;;;;;;;2.97;2.13;;;21.00;78.90;;;;;;6189846;23;20010;-86
2022/12/05 12:56:16;;;;;;;3.05;2.30;;;20.40;78.70;;;;;;6215812;23;20005;-87
2022/12/05 12:59:14;;;;;;;3.22;2.15;;;20.10;78.90;;;;;;6214809;23;20004;-88
2022/12/05 13:02:12;;;;;;;2.95;2.20;;;19.90;79.40;;;;;;6188599;23;20731;-85
2022/12/05 13:04:43;;;;;;;3.53;2.45;;;19.30;80.70;;;;;;6214860;23;20008;-85
2022/12/05 13:07:28;;;;;;;5.43;2.53;;;19.30;81.60;;;;;;6187319;23;20012;-85
2022/12/05 13:10:14;;;;;;;3.13;2.53;;;18.80;82.30;;;;;;6215142;23;20009;-84
2022/12/05 13:12:41;;;;;;;3.25;2.75;;;18.90;82.40;;;;;;6214811;23;19997;-85
2022/12/05 13:15:15;;;;;;;3.78;2.15;;;18.70;83.10;;;;;;6215316;23;20026;-84
2022/12/05 13:17:44;;;;;;;3.47;2.38;;;18.30;83.10;;;;;;6184792;23;20016;-84
2022/12/05 13:20:20;;;;;;;7.45;2.45;;;18.20;84.10;;;;;;6185204;23;20047;-87